Time;durP1;ratioP1;P1;durP2;ratioP2;P2;SDS_P1;SDS_P2;PMS_P1;PMS_P2;Temp;Humidity;BMP_temperature;BMP_pressure;BME280_temperature;BME280_humidity;BME280_pressure;Samples;Min_cycle;Max_cycle;Signal;HPM_P1;HPM_P2
2023/03/22 00:02:10;;;;;;;7.05;5.68;;;;;;;;;;6106778;23;20053;-81
2023/03/22 00:04:36;;;;;;;8.85;6.47;;;;;;;;;;6106716;23;20029;-82
2023/03/22 00:07:03;;;;;;;16.15;6.03;;;;;;;;;;6107284;23;20044;-81
2023/03/22 00:09:30;;;;;;;10.73;6.75;;;;;;;;;;6106707;23;20014;-81
2023/03/22 00:11:57;;;;;;;8.95;5.40;;;;;;;;;;6131147;23;20025;-80
2023/03/22 00:14:24;;;;;;;10.98;6.85;;;;;;;;;;6107158;23;20032;-80
2023/03/22 00:16:51;;;;;;;11.15;6.18;;;;;;;;;;6107504;23;20502;-81
2023/03/22 00:19:17;;;;;;;11.10;6.00;;;;;;;;;;6107851;23;20483;-80
2023/03/22 00:21:45;;;;;;;11.30;6.68;;;;;;;;;;6131440;23;20021;-80
2023/03/22 00:24:11;;;;;;;9.38;6.93;;;;;;;;;;6106960;23;20483;-80
2023/03/22 00:26:38;;;;;;;9.10;6.47;;;;;;;;;;6106611;23;20028;-79
2023/03/22 00:29:05;;;;;;;7.70;6.07;;;;;;;;;;6129857;23;20689;-79
2023/03/22 00:31:32;;;;;;;11.30;6.32;;;;;;;;;;6104037;23;20026;-79
2023/03/22 00:33:59;;;;;;;8.68;5.43;;;;;;;;;;6105035;23;20033;-79
2023/03/22 00:36:25;;;;;;;9.40;5.53;;;;;;;;;;6105146;23;20356;-79
2023/03/22 00:38:52;;;;;;;9.50;5.53;;;;;;;;;;6130279;23;20057;-79
2023/03/22 00:41:22;;;;;;;8.32;5.50;;;;;;;;;;6105652;23;20500;-81
2023/03/22 00:43:50;;;;;;;6.80;5.00;;;;;;;;;;6106342;23;20036;-80
2023/03/22 00:46:19;;;;;;;7.22;4.75;;;;;;;;;;6106965;23;20534;-80
2023/03/22 00:48:46;;;;;;;6.60;5.47;;;;;;;;;;6106879;23;20108;-80
2023/03/22 00:51:13;;;;;;;9.55;4.25;;;;;;;;;;6106924;23;20096;-80
2023/03/22 00:53:40;;;;;;;10.05;5.30;;;;;;;;;;6107447;23;20104;-80
2023/03/22 00:56:12;;;;;;;10.50;4.97;;;;;;;;;;6108342;23;20025;-80
2023/03/22 00:58:40;;;;;;;6.55;4.90;;;;;;;;;;6109319;23;20025;-80
2023/03/22 01:01:07;;;;;;;7.68;4.97;;;;;;;;;;6109217;23;20088;-80
2023/03/22 01:03:34;;;;;;;8.23;4.38;;;;;;;;;;6110328;23;20021;-80
2023/03/22 01:06:01;;;;;;;10.70;5.55;;;;;;;;;;6113944;23;20029;-80
2023/03/22 01:08:32;;;;;;;7.95;4.70;;;;;;;;;;6109944;23;20025;-79
2023/03/22 01:11:00;;;;;;;7.85;5.15;;;;;;;;;;6108621;23;20082;-80
2023/03/22 01:13:27;;;;;;;8.13;5.15;;;;;;;;;;6106961;23;20538;-80
2023/03/22 01:15:54;;;;;;;8.50;5.07;;;;;;;;;;6106273;23;20022;-80
2023/03/22 01:18:22;;;;;;;8.25;4.95;;;;;;;;;;6107046;23;20096;-80
2023/03/22 01:20:48;;;;;;;5.30;3.80;;;;;;;;;;6106071;23;20022;-80
2023/03/22 01:23:15;;;;;;;8.98;4.72;;;;;;;;;;6106193;23;20037;-81
2023/03/22 01:25:42;;;;;;;7.85;3.70;;;;;;;;;;6107909;23;20108;-81
2023/03/22 01:28:09;;;;;;;9.15;4.63;;;;;;;;;;6110637;23;20452;-81
2023/03/22 01:30:40;;;;;;;9.98;5.28;;;;;;;;;;6112749;23;20017;-83
2023/03/22 01:33:08;;;;;;;8.85;4.10;;;;;;;;;;6126332;23;20026;-81
2023/03/22 01:35:35;;;;;;;7.70;4.18;;;;;;;;;;6122061;23;20025;-81
2023/03/22 01:38:02;;;;;;;5.78;3.85;;;;;;;;;;6119959;23;20049;-80
2023/03/22 01:40:28;;;;;;;4.93;4.05;;;;;;;;;;6132574;23;20061;-81
2023/03/22 01:42:55;;;;;;;8.90;4.45;;;;;;;;;;6122327;23;20025;-80
2023/03/22 01:45:29;;;;;;;12.38;4.15;;;;;;;;;;6093246;23;20021;-81
2023/03/22 01:48:04;;;;;;;7.07;4.30;;;;;;;;;;6119977;23;20081;-80
2023/03/22 01:50:31;;;;;;;8.05;4.22;;;;;;;;;;6120138;23;20022;-79
2023/03/22 01:52:58;;;;;;;4.88;3.88;;;;;;;;;;6114768;23;20025;-79
2023/03/22 01:55:26;;;;;;;7.32;4.50;;;;;;;;;;6114532;23;20044;-79
2023/03/22 01:57:53;;;;;;;9.10;4.82;;;;;;;;;;6113370;23;20395;-79
2023/03/22 02:00:20;;;;;;;7.80;4.65;;;;;;;;;;6107555;23;20104;-79
2023/03/22 02:02:49;;;;;;;6.80;4.07;;;;;;;;;;6104318;23;20122;-79
2023/03/22 02:05:16;;;;;;;6.60;4.00;;;;;;;;;;6114392;23;20388;-79
2023/03/22 02:07:43;;;;;;;7.32;4.10;;;;;;;;;;6106076;23;20049;-78
2023/03/22 02:10:22;;;;;;;8.43;3.97;;;;;;;;;;6102274;23;20024;-80
2023/03/22 02:13:33;;;;;;;8.23;4.30;;;;;;;;;;6102918;23;20670;-80
2023/03/22 02:16:11;;;;;;;6.78;4.50;;;;;;;;;;6067703;23;20030;-80
2023/03/22 02:19:10;;;;;;;9.30;4.65;;;;;;;;;;6091204;23;20110;-79
2023/03/22 02:21:46;;;;;;;11.18;6.15;;;;;;;;;;6102056;23;20363;-80
2023/03/22 02:24:44;;;;;;;12.55;10.77;;;;;;;;;;6126978;23;20025;-80
2023/03/22 02:27:26;;;;;;;12.93;11.57;;;;;;;;;;6104123;23;20057;-80
2023/03/22 02:30:18;;;;;;;8.73;6.13;;;;;;;;;;6127301;23;20025;-80
2023/03/22 02:33:01;;;;;;;7.57;5.50;;;;;;;;;;6130866;23;20864;-80
2023/03/22 02:35:36;;;;;;;5.83;4.50;;;;;;;;;;6135279;23;20026;-80
2023/03/22 02:38:21;;;;;;;5.75;3.97;;;;;;;;;;6135676;23;20363;-81
2023/03/22 02:40:57;;;;;;;7.53;4.30;;;;;;;;;;6129512;23;20021;-81
2023/03/22 02:43:40;;;;;;;6.22;3.85;;;;;;;;;;6155223;23;20026;-82
2023/03/22 02:46:14;;;;;;;7.90;4.28;;;;;;;;;;6106556;23;20472;-82
2023/03/22 02:48:43;;;;;;;6.60;4.05;;;;;;;;;;6105719;23;20037;-81
2023/03/22 02:51:19;;;;;;;9.93;4.68;;;;;;;;;;6104762;23;20026;-80
2023/03/22 02:53:52;;;;;;;6.82;4.10;;;;;;;;;;6104783;23;20035;-81
2023/03/22 02:56:38;;;;;;;6.43;4.22;;;;;;;;;;6022544;23;20027;-80
2023/03/22 02:59:05;;;;;;;6.18;4.28;;;;;;;;;;6040490;23;20023;-79
2023/03/22 03:01:54;;;;;;;6.95;4.47;;;;;;;;;;6017245;23;20026;-79
2023/03/22 03:04:27;;;;;;;7.00;4.65;;;;;;;;;;6038562;23;20031;-79
2023/03/22 03:06:58;;;;;;;9.50;4.90;;;;;;;;;;6014470;23;20023;-79
2023/03/22 03:09:24;;;;;;;7.93;5.40;;;;;;;;;;6037880;23;20054;-77
2023/03/22 03:11:52;;;;;;;5.97;5.05;;;;;;;;;;6014305;23;20570;-77
2023/03/22 03:14:27;;;;;;;6.00;4.03;;;;;;;;;;6014544;23;20163;-76
2023/03/22 03:17:16;;;;;;;5.78;4.80;;;;;;;;;;6014706;23;20030;-77
2023/03/22 03:20:13;;;;;;;7.10;4.30;;;;;;;;;;6038079;23;20031;-77
2023/03/22 03:22:42;;;;;;;6.00;4.18;;;;;;;;;;6055502;23;20026;-79
2023/03/22 03:25:12;;;;;;;8.02;4.85;;;;;;;;;;6038312;23;20029;-79
2023/03/22 03:27:43;;;;;;;6.35;4.25;;;;;;;;;;6090522;23;20036;-77
2023/03/22 03:30:12;;;;;;;9.55;5.05;;;;;;;;;;6103301;23;20021;-78
2023/03/22 03:32:53;;;;;;;5.60;4.35;;;;;;;;;;6101991;23;20032;-77
2023/03/22 03:35:28;;;;;;;6.93;4.40;;;;;;;;;;6101728;23;20408;-77
2023/03/22 03:38:19;;;;;;;5.82;4.30;;;;;;;;;;6103234;23;20036;-78
2023/03/22 03:40:47;;;;;;;5.05;4.53;;;;;;;;;;6125550;23;20025;-77
2023/03/22 03:43:14;;;;;;;5.95;4.55;;;;;;;;;;6101917;23;20033;-77
2023/03/22 03:45:41;;;;;;;7.43;4.82;;;;;;;;;;6102314;23;20476;-77
2023/03/22 03:48:15;;;;;;;5.82;4.20;;;;;;;;;;6104933;23;20064;-79
2023/03/22 03:50:41;;;;;;;7.07;4.18;;;;;;;;;;6102415;23;20088;-77
2023/03/22 03:53:08;;;;;;;5.97;4.40;;;;;;;;;;6102765;23;20028;-77
2023/03/22 03:55:36;;;;;;;7.78;4.20;;;;;;;;;;6102122;23;20026;-78
2023/03/22 03:58:03;;;;;;;7.13;4.65;;;;;;;;;;6102883;23;20073;-77
2023/03/22 04:00:30;;;;;;;6.10;4.97;;;;;;;;;;6101482;23;20021;-76
2023/03/22 04:02:56;;;;;;;5.13;4.50;;;;;;;;;;6102057;23;20852;-77
2023/03/22 04:05:23;;;;;;;8.52;5.00;;;;;;;;;;6125798;23;20032;-77
2023/03/22 04:07:50;;;;;;;7.43;4.97;;;;;;;;;;6125962;23;20623;-77
2023/03/22 04:10:17;;;;;;;7.93;4.70;;;;;;;;;;6150290;23;20024;-77
2023/03/22 04:12:43;;;;;;;6.53;4.63;;;;;;;;;;6126807;23;20234;-79
2023/03/22 04:15:11;;;;;;;7.53;4.47;;;;;;;;;;6127092;23;20022;-80
2023/03/22 04:17:38;;;;;;;7.90;4.88;;;;;;;;;;6103958;23;20104;-80
2023/03/22 04:20:06;;;;;;;7.45;5.25;;;;;;;;;;6104310;23;20029;-81
2023/03/22 04:22:33;;;;;;;7.10;4.57;;;;;;;;;;6105001;23;20347;-79
2023/03/22 04:25:00;;;;;;;7.57;4.53;;;;;;;;;;6103247;23;20371;-80
2023/03/22 04:27:27;;;;;;;6.40;4.85;;;;;;;;;;6103565;23;20025;-80
2023/03/22 04:29:54;;;;;;;6.65;4.43;;;;;;;;;;6103049;23;20025;-80
2023/03/22 04:32:24;;;;;;;5.50;4.97;;;;;;;;;;6127335;23;20033;-80
2023/03/22 04:34:51;;;;;;;8.00;4.50;;;;;;;;;;6105114;23;20356;-80
2023/03/22 04:37:21;;;;;;;10.10;4.65;;;;;;;;;;6104490;23;20022;-80
2023/03/22 04:39:48;;;;;;;7.35;4.50;;;;;;;;;;6104004;23;20105;-79
2023/03/22 04:42:14;;;;;;;10.63;5.28;;;;;;;;;;6102419;23;20048;-79
2023/03/22 04:44:41;;;;;;;5.47;4.80;;;;;;;;;;6103762;23;20025;-79
2023/03/22 04:47:08;;;;;;;9.15;5.28;;;;;;;;;;6104041;23;20026;-79
2023/03/22 04:49:35;;;;;;;11.35;4.93;;;;;;;;;;6105499;23;20040;-80
2023/03/22 04:52:01;;;;;;;7.50;5.10;;;;;;;;;;6103413;23;20040;-73
2023/03/22 04:54:28;;;;;;;8.00;4.75;;;;;;;;;;6104219;23;20029;-78
2023/03/22 04:56:56;;;;;;;8.20;5.35;;;;;;;;;;6104329;23;20128;-79
2023/03/22 04:59:23;;;;;;;5.93;4.45;;;;;;;;;;6103861;23;20025;-78
2023/03/22 05:01:50;;;;;;;6.35;4.60;;;;;;;;;;6104099;23;20392;-80
2023/03/22 05:04:19;;;;;;;5.38;4.55;;;;;;;;;;6103713;23;20021;-80
2023/03/22 05:06:45;;;;;;;6.85;4.65;;;;;;;;;;6103340;23;20036;-82
2023/03/22 05:09:13;;;;;;;5.35;4.53;;;;;;;;;;6103512;23;20025;-80
2023/03/22 05:11:39;;;;;;;7.38;4.75;;;;;;;;;;6103466;23;20028;-79
2023/03/22 05:14:07;;;;;;;6.97;4.60;;;;;;;;;;6104439;23;20037;-80
2023/03/22 05:16:35;;;;;;;6.28;4.15;;;;;;;;;;6105695;23;20468;-81
2023/03/22 05:19:02;;;;;;;8.15;4.20;;;;;;;;;;6082499;23;20037;-81
2023/03/22 05:21:35;;;;;;;6.72;4.68;;;;;;;;;;6106358;23;20033;-80
2023/03/22 05:24:02;;;;;;;;;;;;;;;;;;6116368;23;20029;-80
2023/03/22 05:26:28;;;;;;;5.13;4.20;;;;;;;;;;6130178;23;19917;-78
2023/03/22 05:28:55;;;;;;;6.55;4.72;;;;;;;;;;6104873;23;20037;-78
2023/03/22 05:31:22;;;;;;;5.15;3.90;;;;;;;;;;6111312;23;20017;-83
2023/03/22 05:33:52;;;;;;;6.65;4.53;;;;;;;;;;6133353;23;20044;-87
2023/03/22 05:36:20;;;;;;;4.70;4.13;;;;;;;;;;6121144;23;20018;-79
2023/03/22 05:38:47;;;;;;;7.97;3.95;;;;;;;;;;6103291;23;20044;-80
2023/03/22 05:41:14;;;;;;;5.78;4.10;;;;;;;;;;6101987;23;20100;-78
2023/03/22 05:43:41;;;;;;;5.25;4.15;;;;;;;;;;6079563;23;20112;-79
2023/03/22 05:46:09;;;;;;;8.02;3.88;;;;;;;;;;6103116;23;20025;-79
2023/03/22 05:48:37;;;;;;;6.50;4.57;;;;;;;;;;6102805;23;20067;-80
2023/03/22 05:51:08;;;;;;;9.18;5.25;;;;;;;;;;6103074;23;20028;-79
2023/03/22 05:53:35;;;;;;;6.13;4.40;;;;;;;;;;6103545;23;20144;-81
2023/03/22 05:56:02;;;;;;;6.40;3.55;;;;;;;;;;6103553;23;20029;-78
2023/03/22 05:58:30;;;;;;;6.03;4.00;;;;;;;;;;6102983;23;20048;-80
2023/03/22 06:00:59;;;;;;;5.18;3.55;;;;;;;;;;6103342;23;20018;-79
2023/03/22 06:03:27;;;;;;;5.47;3.97;;;;;;;;;;6104451;23;20471;-79
2023/03/22 06:05:54;;;;;;;7.22;4.05;;;;;;;;;;6104068;23;20473;-80
2023/03/22 06:08:21;;;;;;;4.57;3.55;;;;;;;;;;6103250;23;20022;-78
2023/03/22 06:10:52;;;;;;;5.43;3.83;;;;;;;;;;6104782;23;20017;-79
2023/03/22 06:13:20;;;;;;;5.85;4.38;;;;;;;;;;6104741;23;20364;-80
2023/03/22 06:15:47;;;;;;;7.03;4.00;;;;;;;;;;6104412;23;20022;-80
2023/03/22 06:18:14;;;;;;;6.75;4.38;;;;;;;;;;6104023;23;20096;-80
2023/03/22 06:20:41;;;;;;;5.88;4.43;;;;;;;;;;6103646;23;20027;-80
2023/03/22 06:23:08;;;;;;;6.53;4.38;;;;;;;;;;6104424;23;20475;-80
2023/03/22 06:25:34;;;;;;;6.70;3.90;;;;;;;;;;6103418;23;20026;-79
2023/03/22 06:28:01;;;;;;;4.03;3.60;;;;;;;;;;6104944;23;20029;-80
2023/03/22 06:30:28;;;;;;;6.45;3.72;;;;;;;;;;6105010;23;20021;-80
2023/03/22 06:32:59;;;;;;;5.55;3.72;;;;;;;;;;6106138;23;20451;-80
2023/03/22 06:35:26;;;;;;;7.18;4.15;;;;;;;;;;6108894;23;20064;-82
2023/03/22 06:37:53;;;;;;;6.20;3.97;;;;;;;;;;6107288;23;20021;-81
2023/03/22 06:40:20;;;;;;;5.50;4.20;;;;;;;;;;6104831;23;20514;-81
2023/03/22 06:42:47;;;;;;;5.25;3.20;;;;;;;;;;6107192;23;20026;-81
2023/03/22 06:45:15;;;;;;;9.32;3.65;;;;;;;;;;6130476;23;20531;-84
2023/03/22 06:47:43;;;;;;;8.23;4.28;;;;;;;;;;6105563;23;20037;-81
2023/03/22 06:50:10;;;;;;;5.53;3.50;;;;;;;;;;6104674;23;20508;-73
2023/03/22 06:52:37;;;;;;;7.20;4.18;;;;;;;;;;6102876;23;20017;-83
2023/03/22 06:55:04;;;;;;;5.70;3.80;;;;;;;;;;6126338;23;20518;-75
2023/03/22 06:57:31;;;;;;;4.90;3.60;;;;;;;;;;6102932;23;20026;-77
2023/03/22 06:59:58;;;;;;;7.28;3.38;;;;;;;;;;6077904;23;20026;-79
2023/03/22 07:02:25;;;;;;;4.70;3.35;;;;;;;;;;6080337;23;20025;-80
2023/03/22 07:04:51;;;;;;;5.05;3.08;;;;;;;;;;6104137;23;20025;-78
2023/03/22 07:07:18;;;;;;;6.78;3.72;;;;;;;;;;6101697;23;20029;-77
2023/03/22 07:09:45;;;;;;;4.93;3.28;;;;;;;;;;6101835;23;20079;-77
2023/03/22 07:12:11;;;;;;;6.68;3.33;;;;;;;;;;6101353;23;20022;-80
2023/03/22 07:14:38;;;;;;;3.40;2.80;;;;;;;;;;6078212;23;20108;-79
2023/03/22 07:17:05;;;;;;;7.20;2.95;;;;;;;;;;6101484;23;20029;-80
2023/03/22 07:19:32;;;;;;;7.63;4.25;;;;;;;;;;6107922;23;20022;-80
2023/03/22 07:21:59;;;;;;;6.10;2.95;;;;;;;;;;6103185;23;20104;-79
2023/03/22 07:24:25;;;;;;;3.95;2.95;;;;;;;;;;6102983;23;20464;-79
2023/03/22 07:26:52;;;;;;;6.45;3.20;;;;;;;;;;6103001;23;20021;-79
2023/03/22 07:29:19;;;;;;;5.90;2.92;;;;;;;;;;6102414;23;20537;-80
2023/03/22 07:31:46;;;;;;;4.85;2.65;;;;;;;;;;6102058;23;20036;-74
2023/03/22 07:34:13;;;;;;;3.85;2.50;;;;;;;;;;6100694;23;20503;-77
2023/03/22 07:36:39;;;;;;;3.70;2.47;;;;;;;;;;6101406;23;20021;-78
2023/03/22 07:39:06;;;;;;;6.20;3.22;;;;;;;;;;6078173;23;20025;-78
2023/03/22 07:41:33;;;;;;;4.38;2.65;;;;;;;;;;6101389;23;20013;-78
2023/03/22 07:44:00;;;;;;;4.85;2.40;;;;;;;;;;6103309;23;20025;-80
2023/03/22 07:46:42;;;;;;;4.77;3.03;;;;;;;;;;6110387;23;20059;-81
2023/03/22 07:49:09;;;;;;;4.68;2.22;;;;;;;;;;6102431;23;20211;-81
2023/03/22 07:51:36;;;;;;;6.25;2.70;;;;;;;;;;6101897;23;20024;-76
2023/03/22 07:54:03;;;;;;;2.92;2.50;;;;;;;;;;6124567;23;20399;-76
2023/03/22 07:56:33;;;;;;;7.13;2.60;;;;;;;;;;6102482;23;20022;-76
2023/03/22 07:58:59;;;;;;;4.15;2.33;;;;;;;;;;6101009;23;20557;-78
2023/03/22 08:01:26;;;;;;;3.67;2.40;;;;;;;;;;6099841;23;20030;-78
2023/03/22 08:03:53;;;;;;;4.45;1.90;;;;;;;;;;6101485;23;20029;-79
2023/03/22 08:06:20;;;;;;;4.22;2.22;;;;;;;;;;6101374;23;20021;-79
2023/03/22 08:08:47;;;;;;;6.40;2.30;;;;;;;;;;6077131;23;20032;-79
2023/03/22 08:11:14;;;;;;;4.72;1.80;;;;;;;;;;6100003;23;20029;-78
2023/03/22 08:13:41;;;;;;;3.22;1.90;;;;;;;;;;6099961;23;20476;-74
2023/03/22 08:16:07;;;;;;;3.78;2.13;;;;;;;;;;6149377;23;20025;-75
2023/03/22 08:18:34;;;;;;;3.75;2.10;;;;;;;;;;6120223;23;20093;-79
2023/03/22 08:21:02;;;;;;;3.75;2.22;;;;;;;;;;6102329;23;20108;-79
2023/03/22 08:23:29;;;;;;;5.97;1.98;;;;;;;;;;6102975;23;20041;-78
2023/03/22 08:26:09;;;;;;;5.28;2.10;;;;;;;;;;6108943;23;20017;-80
2023/03/22 08:28:36;;;;;;;4.00;1.98;;;;;;;;;;6104121;23;20032;-80
2023/03/22 08:31:14;;;;;;;3.80;2.15;;;;;;;;;;6104091;23;20032;-80
2023/03/22 08:33:41;;;;;;;3.67;1.55;;;;;;;;;;6105446;23;20036;-80
2023/03/22 08:36:11;;;;;;;5.30;1.63;;;;;;;;;;6104302;23;20408;-79
2023/03/22 08:38:41;;;;;;;2.42;1.60;;;;;;;;;;6103869;23;20496;-78
2023/03/22 08:41:11;;;;;;;2.67;1.50;;;;;;;;;;6104234;23;20052;-79
2023/03/22 08:43:39;;;;;;;2.53;1.65;;;;;;;;;;6127934;23;20021;-78
2023/03/22 08:46:05;;;;;;;3.20;1.50;;;;;;;;;;6102111;23;20025;-78
2023/03/22 08:48:34;;;;;;;2.25;1.10;;;;;;;;;;6103231;23;20467;-77
2023/03/22 08:51:01;;;;;;;3.33;1.10;;;;;;;;;;6105760;23;20084;-82
2023/03/22 08:53:28;;;;;;;2.05;0.82;;;;;;;;;;6106574;23;20025;-80
2023/03/22 08:55:56;;;;;;;1.73;0.98;;;;;;;;;;6106576;23;20025;-80
2023/03/22 08:58:23;;;;;;;1.83;1.00;;;;;;;;;;6131145;23;20491;-80
2023/03/22 09:00:50;;;;;;;1.55;0.85;;;;;;;;;;6129572;23;20076;-80
2023/03/22 09:03:17;;;;;;;1.02;0.90;;;;;;;;;;6107972;23;20037;-81
2023/03/22 09:05:44;;;;;;;1.20;0.82;;;;;;;;;;6106971;23;20055;-80
2023/03/22 09:08:11;;;;;;;1.30;0.80;;;;;;;;;;6105707;23;20428;-80
2023/03/22 09:10:50;;;;;;;1.67;0.98;;;;;;;;;;6131125;23;20048;-80
2023/03/22 09:13:18;;;;;;;3.05;0.82;;;;;;;;;;6106552;23;20025;-79
2023/03/22 09:15:45;;;;;;;1.95;0.90;;;;;;;;;;6107251;23;20025;-78
2023/03/22 09:18:12;;;;;;;0.70;0.70;;;;;;;;;;6107741;23;20032;-82
2023/03/22 09:20:39;;;;;;;2.13;1.10;;;;;;;;;;6106815;23;20376;-81
2023/03/22 09:23:06;;;;;;;2.78;0.70;;;;;;;;;;6107740;23;20045;-82
2023/03/22 09:25:33;;;;;;;1.35;0.80;;;;;;;;;;6106808;23;20053;-78
2023/03/22 09:28:01;;;;;;;2.13;0.80;;;;;;;;;;6105066;23;20028;-78
2023/03/22 09:30:27;;;;;;;1.23;0.63;;;;;;;;;;6082682;23;20025;-80
2023/03/22 09:32:54;;;;;;;2.05;0.80;;;;;;;;;;6126975;23;20017;-80
2023/03/22 09:35:21;;;;;;;1.08;0.50;;;;;;;;;;6107139;23;20472;-80
2023/03/22 09:37:51;;;;;;;1.75;0.73;;;;;;;;;;6106743;23;20101;-80
2023/03/22 09:40:20;;;;;;;2.30;0.63;;;;;;;;;;6107412;23;20028;-80
2023/03/22 09:42:51;;;;;;;1.75;0.82;;;;;;;;;;6106931;23;20028;-81
2023/03/22 09:45:23;;;;;;;1.48;0.88;;;;;;;;;;6107205;23;20025;-80
2023/03/22 09:47:52;;;;;;;2.33;0.70;;;;;;;;;;6108472;23;20125;-79
2023/03/22 09:50:22;;;;;;;1.48;0.80;;;;;;;;;;6106932;23;20057;-80
2023/03/22 09:52:49;;;;;;;0.93;0.77;;;;;;;;;;6107379;23;20018;-80
2023/03/22 09:55:53;;;;;;;1.52;0.68;;;;;;;;;;6106204;23;20400;-80
2023/03/22 09:58:44;;;;;;;1.55;0.90;;;;;;;;;;6066054;23;20433;-80
2023/03/22 10:01:30;;;;;;;0.88;0.65;;;;;;;;;;6152459;23;20025;-81
2023/03/22 10:04:03;;;;;;;0.93;0.68;;;;;;;;;;6130604;23;20056;-81
2023/03/22 10:06:30;;;;;;;;;;;;;;;;;;6130763;23;20372;-80
2023/03/22 10:09:15;;;;;;;1.25;0.80;;;;;;;;;;6130750;23;19920;-80
2023/03/22 10:11:54;;;;;;;2.28;0.88;;;;;;;;;;6131095;23;20017;-80
2023/03/22 10:15:22;;;;;;;1.23;0.90;;;;;;;;;;6108805;23;20673;-80
2023/03/22 10:17:52;;;;;;;1.25;0.50;;;;;;;;;;6094000;23;20524;-80
2023/03/22 10:20:35;;;;;;;1.15;0.68;;;;;;;;;;6071900;23;20033;-80
2023/03/22 10:23:04;;;;;;;1.98;0.60;;;;;;;;;;6117245;23;20092;-80
2023/03/22 10:25:36;;;;;;;0.82;0.40;;;;;;;;;;6107554;23;20025;-80
2023/03/22 10:28:33;;;;;;;3.37;0.63;;;;;;;;;;6107931;23;20026;-80
2023/03/22 10:31:00;;;;;;;1.67;1.00;;;;;;;;;;6110213;23;20248;-80
2023/03/22 10:33:49;;;;;;;2.20;0.80;;;;;;;;;;6085893;23;20028;-80
2023/03/22 10:36:18;;;;;;;1.23;0.57;;;;;;;;;;6107847;23;20061;-74
2023/03/22 10:38:49;;;;;;;0.90;0.70;;;;;;;;;;6103438;23;20490;-73
2023/03/22 10:41:17;;;;;;;1.35;0.85;;;;;;;;;;6102816;23;20558;-75
2023/03/22 10:43:44;;;;;;;1.38;0.88;;;;;;;;;;6102989;23;20092;-74
2023/03/22 10:46:23;;;;;;;1.42;0.90;;;;;;;;;;6102726;23;20468;-75
2023/03/22 10:48:50;;;;;;;1.25;0.60;;;;;;;;;;6128918;23;20025;-82
2023/03/22 10:51:39;;;;;;;2.15;0.90;;;;;;;;;;6103653;23;20021;-83
2023/03/22 10:54:11;;;;;;;1.42;1.02;;;;;;;;;;6107187;23;20490;-83
2023/03/22 10:56:40;;;;;;;1.00;0.70;;;;;;;;;;6108384;23;20104;-83
2023/03/22 10:59:11;;;;;;;1.83;0.70;;;;;;;;;;6109180;23;20021;-84
2023/03/22 11:01:43;;;;;;;0.93;0.80;;;;;;;;;;6132018;23;20029;-83
2023/03/22 11:04:13;;;;;;;1.58;0.70;;;;;;;;;;6108051;23;20096;-85
2023/03/22 11:06:51;;;;;;;1.10;0.73;;;;;;;;;;6110011;23;20026;-83
2023/03/22 11:09:23;;;;;;;1.80;0.80;;;;;;;;;;6109422;23;20028;-83
2023/03/22 11:11:57;;;;;;;1.35;0.70;;;;;;;;;;6108212;23;20017;-83
2023/03/22 11:14:27;;;;;;;1.85;0.95;;;;;;;;;;6107951;23;20017;-84
2023/03/22 11:16:58;;;;;;;0.63;0.60;;;;;;;;;;6132200;23;20049;-84
2023/03/22 11:19:36;;;;;;;1.83;0.77;;;;;;;;;;6108889;23;20035;-84
2023/03/22 11:22:32;;;;;;;2.10;0.70;;;;;;;;;;6108959;23;20021;-84
2023/03/22 11:24:59;;;;;;;2.00;0.60;;;;;;;;;;6126498;23;20029;-82
2023/03/22 11:27:28;;;;;;;1.58;0.77;;;;;;;;;;6107866;23;20490;-84
2023/03/22 11:30:22;;;;;;;1.25;0.90;;;;;;;;;;6108384;23;20048;-84
2023/03/22 11:32:59;;;;;;;1.25;0.70;;;;;;;;;;6124492;23;20032;-86
2023/03/22 11:35:28;;;;;;;0.70;0.60;;;;;;;;;;6107239;23;20068;-84
2023/03/22 11:37:58;;;;;;;1.67;1.08;;;;;;;;;;6107653;23;20053;-84
2023/03/22 11:40:33;;;;;;;1.92;0.60;;;;;;;;;;6132207;23;20022;-82
2023/03/22 11:43:11;;;;;;;1.23;0.60;;;;;;;;;;6108052;23;20085;-83
2023/03/22 11:45:41;;;;;;;1.30;0.60;;;;;;;;;;6107929;23;20025;-83
2023/03/22 11:48:18;;;;;;;0.75;0.75;;;;;;;;;;6107442;23;20486;-84
2023/03/22 11:50:45;;;;;;;0.77;0.60;;;;;;;;;;6106589;23;20084;-79
2023/03/22 11:53:24;;;;;;;0.93;0.70;;;;;;;;;;6104888;23;20490;-79
2023/03/22 11:55:53;;;;;;;1.17;1.00;;;;;;;;;;6106217;23;20058;-80
2023/03/22 11:58:39;;;;;;;3.85;0.93;;;;;;;;;;6104538;23;20029;-80
2023/03/22 12:01:06;;;;;;;1.92;1.00;;;;;;;;;;6128711;23;20056;-80
2023/03/22 12:03:35;;;;;;;0.70;0.50;;;;;;;;;;6079758;23;20068;-80
2023/03/22 12:06:33;;;;;;;3.13;0.90;;;;;;;;;;6107250;23;20029;-81
2023/03/22 12:09:28;;;;;;;3.55;0.90;;;;;;;;;;6108101;23;20072;-80
2023/03/22 12:11:56;;;;;;;2.08;0.90;;;;;;;;;;6134151;23;20022;-82
2023/03/22 12:14:43;;;;;;;2.65;0.70;;;;;;;;;;6107053;23;20122;-81
2023/03/22 12:17:23;;;;;;;1.45;0.93;;;;;;;;;;6109183;23;20029;-81
2023/03/22 12:20:07;;;;;;;1.83;0.90;;;;;;;;;;6132875;23;20104;-81
2023/03/22 12:22:38;;;;;;;2.13;0.90;;;;;;;;;;6108301;23;20460;-81
2023/03/22 12:25:17;;;;;;;0.60;0.60;;;;;;;;;;6106513;23;20033;-82
2023/03/22 12:27:49;;;;;;;2.38;0.88;;;;;;;;;;6107561;23;20456;-81
2023/03/22 12:30:38;;;;;;;2.60;0.82;;;;;;;;;;6104713;23;20030;-81
2023/03/22 12:33:56;;;;;;;1.48;0.82;;;;;;;;;;6107311;23;20029;-82
2023/03/22 12:36:30;;;;;;;1.58;0.60;;;;;;;;;;6105614;23;20029;-82
2023/03/22 12:38:57;;;;;;;3.10;0.70;;;;;;;;;;6105833;23;20100;-82
2023/03/22 12:41:46;;;;;;;2.15;0.75;;;;;;;;;;6106917;23;20048;-82
2023/03/22 12:44:22;;;;;;;1.60;0.70;;;;;;;;;;6106951;23;20073;-82
2023/03/22 12:46:55;;;;;;;0.63;0.52;;;;;;;;;;6106403;23;20080;-82
2023/03/22 12:49:26;;;;;;;0.90;0.50;;;;;;;;;;6108372;23;20104;-82
2023/03/22 12:51:54;;;;;;;1.23;0.50;;;;;;;;;;6132528;23;20077;-82
2023/03/22 12:54:23;;;;;;;1.38;0.65;;;;;;;;;;6135881;23;20052;-81
2023/03/22 12:56:49;;;;;;;2.10;0.90;;;;;;;;;;6107727;23;20511;-81
2023/03/22 12:59:19;;;;;;;2.45;0.68;;;;;;;;;;6123272;23;20021;-82
2023/03/22 13:01:50;;;;;;;2.92;0.70;;;;;;;;;;6126517;23;20258;-83
2023/03/22 13:04:31;;;;;;;1.05;0.50;;;;;;;;;;6118567;23;20018;-83
2023/03/22 13:07:07;;;;;;;0.50;0.47;;;;;;;;;;6151014;23;20105;-81
2023/03/22 13:09:43;;;;;;;0.90;0.50;;;;;;;;;;6128628;23;20021;-82
2023/03/22 13:12:17;;;;;;;0.77;0.35;;;;;;;;;;6106856;23;20021;-82
2023/03/22 13:14:56;;;;;;;0.90;0.50;;;;;;;;;;6128965;23;20343;-83
2023/03/22 13:17:23;;;;;;;1.75;0.60;;;;;;;;;;6128865;23;20022;-83
2023/03/22 13:20:06;;;;;;;0.70;0.70;;;;;;;;;;6130884;23;20053;-82
2023/03/22 13:22:36;;;;;;;;;;;;;;;;;;6134173;23;20021;-79
2023/03/22 13:25:11;;;;;;;0.73;0.50;;;;;;;;;;6129991;23;19924;-80
2023/03/22 13:27:45;;;;;;;2.97;0.73;;;;;;;;;;6130020;23;20083;-80
2023/03/22 13:30:25;;;;;;;1.67;0.70;;;;;;;;;;6129662;23;20025;-79
2023/03/22 13:32:53;;;;;;;0.93;0.50;;;;;;;;;;6103519;23;20025;-79
2023/03/22 13:35:40;;;;;;;1.65;0.68;;;;;;;;;;6129115;23;20067;-80
2023/03/22 13:38:24;;;;;;;2.20;0.50;;;;;;;;;;6128516;23;20021;-80
2023/03/22 13:41:04;;;;;;;1.25;0.70;;;;;;;;;;6132950;23;20379;-86
2023/03/22 13:43:36;;;;;;;1.10;0.90;;;;;;;;;;6104644;23;20021;-83
2023/03/22 13:46:20;;;;;;;2.08;0.90;;;;;;;;;;6105886;23;20017;-85
2023/03/22 13:48:51;;;;;;;1.98;0.60;;;;;;;;;;6129676;23;20025;-83
2023/03/22 13:51:21;;;;;;;1.30;0.57;;;;;;;;;;6132158;23;20022;-82
2023/03/22 13:53:54;;;;;;;2.70;0.80;;;;;;;;;;6132618;23;20017;-82
2023/03/22 13:56:48;;;;;;;3.72;0.77;;;;;;;;;;6129525;23;20033;-82
2023/03/22 13:59:25;;;;;;;1.42;0.45;;;;;;;;;;6107792;23;20088;-82
2023/03/22 14:02:03;;;;;;;5.25;0.80;;;;;;;;;;6132720;23;20022;-83
2023/03/22 14:04:43;;;;;;;4.13;0.70;;;;;;;;;;6131101;23;20044;-82
2023/03/22 14:07:22;;;;;;;2.17;0.80;;;;;;;;;;6105831;23;20021;-84
2023/03/22 14:10:05;;;;;;;2.55;0.60;;;;;;;;;;6131052;23;20021;-84
2023/03/22 14:12:54;;;;;;;0.88;0.57;;;;;;;;;;6112162;23;20480;-84
2023/03/22 14:15:27;;;;;;;1.75;0.98;;;;;;;;;;6134759;23;20025;-83
2023/03/22 14:17:58;;;;;;;0.40;0.40;;;;;;;;;;6104729;23;20028;-82
2023/03/22 14:20:30;;;;;;;2.03;1.00;;;;;;;;;;6128767;23;20029;-83
2023/03/22 14:22:58;;;;;;;1.10;0.60;;;;;;;;;;6104502;23;20045;-81
2023/03/22 14:25:28;;;;;;;1.13;0.50;;;;;;;;;;6103084;23;20029;-81
2023/03/22 14:27:54;;;;;;;1.00;0.60;;;;;;;;;;6104986;23;20094;-80
2023/03/22 14:30:27;;;;;;;0.50;0.40;;;;;;;;;;6106554;23;20075;-83
2023/03/22 14:32:58;;;;;;;1.05;0.40;;;;;;;;;;6106250;23;20079;-83
2023/03/22 14:35:48;;;;;;;0.95;0.40;;;;;;;;;;6105934;23;20066;-83
2023/03/22 14:38:32;;;;;;;0.60;0.40;;;;;;;;;;6129987;23;20021;-83
2023/03/22 14:41:09;;;;;;;0.65;0.50;;;;;;;;;;6106672;23;20009;-83
2023/03/22 14:43:35;;;;;;;2.65;1.25;;;;;;;;;;6106590;23;20018;-84
2023/03/22 14:46:12;;;;;;;3.13;1.40;;;;;;;;;;6106582;23;20310;-83
2023/03/22 14:48:38;;;;;;;1.08;0.80;;;;;;;;;;6082630;23;20064;-81
2023/03/22 14:51:16;;;;;;;0.60;0.60;;;;;;;;;;6082544;23;20021;-81
2023/03/22 14:53:41;;;;;;;1.55;0.60;;;;;;;;;;6084141;23;20080;-82
2023/03/22 14:56:11;;;;;;;0.73;0.40;;;;;;;;;;6084753;23;20025;-82
2023/03/22 14:58:36;;;;;;;1.00;0.43;;;;;;;;;;6109615;23;20060;-81
2023/03/22 15:01:07;;;;;;;0.68;0.35;;;;;;;;;;6082250;23;20028;-80
2023/03/22 15:03:32;;;;;;;0.55;0.43;;;;;;;;;;6078863;23;20018;-80
2023/03/22 15:05:58;;;;;;;1.10;0.47;;;;;;;;;;6084148;23;20475;-80
2023/03/22 15:08:26;;;;;;;2.28;0.57;;;;;;;;;;6082221;23;20578;-80
2023/03/22 15:11:01;;;;;;;0.90;0.45;;;;;;;;;;6082449;23;20052;-80